Time,TemperatureF,DewpointF,PressureIn,WindDirection,WindDirectionDegrees,WindSpeedMPH,WindSpeedGustMPH,Humidity,HourlyPrecipIn,Conditions,Clouds,dailyrainin,SoftwareType,DateUTC
2013-03-05 00:01:00,59.0,31.0,29.80,WSW,253,8.0,8.0,35,0.00,,,0.00,,2013-03-05 06:01:00,
2013-03-05 00:11:00,59.0,31.0,29.80,WSW,253,8.0,8.0,35,0.00,,,0.00,,2013-03-05 06:11:00,
2013-03-05 00:22:00,65.0,39.0,29.85,NNW,347,28.0,28.0,39,0.00,,,0.00,,2013-03-05 06:22:00,
2013-03-05 00:31:00,64.0,47.0,29.89,NNW,329,25.0,31.0,54,0.00,,,0.00,,2013-03-05 06:31:00,
2013-03-05 00:41:00,64.0,47.0,29.89,NNW,329,25.0,31.0,54,0.00,,,0.00,,2013-03-05 06:41:00,
2013-03-05 00:52:00,59.0,46.0,29.92,North,352,20.0,20.0,63,0.00,,,0.00,,2013-03-05 06:52:00,
2013-03-05 01:01:00,56.0,45.0,29.96,WNW,290,29.0,29.0,66,0.00,,,0.00,,2013-03-05 07:01:00,
2013-03-05 01:11:00,56.0,45.0,29.96,WNW,290,29.0,29.0,66,0.00,,,0.00,,2013-03-05 07:11:00,
2013-03-05 01:22:00,54.0,44.0,29.98,NNW,330,21.0,23.0,68,0.00,,,0.00,,2013-03-05 07:22:00,
2013-03-05 01:31:00,52.0,43.0,29.99,NNW,347,23.0,25.0,71,0.00,,,0.00,,2013-03-05 07:31:00,
2013-03-05 01:41:00,52.0,43.0,29.99,NNW,347,23.0,25.0,71,0.00,,,0.00,,2013-03-05 07:41:00,
2013-03-05 01:52:00,50.0,41.0,30.04,NW,312,25.0,25.0,71,0.00,,,0.00,,2013-03-05 07:52:00,
2013-03-05 02:02:00,49.0,40.0,30.05,NNE,17,23.0,23.0,72,0.00,,,0.00,,2013-03-05 08:02:00,
2013-03-05 02:11:00,49.0,40.0,30.05,NNE,17,23.0,23.0,72,0.00,,,0.00,,2013-03-05 08:11:00,
2013-03-05 02:21:00,49.0,40.0,30.07,North,356,19.0,29.0,72,0.00,,,0.00,,2013-03-05 08:21:00,
2013-03-05 02:31:00,48.0,39.0,30.11,NNW,339,25.0,27.0,72,0.00,,,0.00,,2013-03-05 08:31:00,
2013-03-05 02:41:00,48.0,39.0,30.11,NNW,339,25.0,27.0,72,0.00,,,0.00,,2013-03-05 08:41:00,
2013-03-05 02:52:00,47.0,38.0,30.12,NNW,347,26.0,26.0,71,0.00,,,0.00,,2013-03-05 08:52:00,
2013-03-05 03:01:00,47.0,38.0,30.15,NNW,329,19.0,20.0,70,0.00,,,0.00,,2013-03-05 09:01:00,
2013-03-05 03:11:00,46.0,37.0,30.16,North,353,16.0,21.0,70,0.00,,,0.00,,2013-03-05 09:11:00,
2013-03-05 03:21:00,46.0,37.0,30.16,North,353,16.0,21.0,70,0.00,,,0.00,,2013-03-05 09:21:00,
2013-03-05 03:31:00,46.0,37.0,30.18,WNW,302,22.0,22.0,70,0.00,,,0.00,,2013-03-05 09:31:00,
2013-03-05 03:42:00,46.0,37.0,30.18,WNW,302,22.0,22.0,70,0.00,,,0.00,,2013-03-05 09:42:00,
2013-03-05 03:52:00,45.0,36.0,30.20,North,350,20.0,20.0,71,0.00,,,0.00,,2013-03-05 09:52:00,
2013-03-05 04:01:00,45.0,37.0,30.21,North,4,15.0,16.0,73,0.00,,,0.00,,2013-03-05 10:01:00,
2013-03-05 04:11:00,45.0,37.0,30.21,North,4,15.0,16.0,73,0.00,,,0.00,,2013-03-05 10:11:00,
2013-03-05 04:21:00,44.0,36.0,30.21,NNE,23,17.0,17.0,72,0.00,,,0.00,,2013-03-05 10:21:00,
2013-03-05 04:32:00,45.0,36.0,30.22,North,3,15.0,21.0,70,0.00,,,0.00,,2013-03-05 10:32:00,
2013-03-05 04:42:00,45.0,36.0,30.22,North,3,15.0,21.0,70,0.00,,,0.00,,2013-03-05 10:42:00,
2013-03-05 04:52:00,44.0,34.0,30.23,North,359,14.0,14.0,69,0.00,,,0.00,,2013-03-05 10:52:00,
2013-03-05 05:01:00,44.0,34.0,30.24,NNW,342,16.0,19.0,69,0.00,,,0.00,,2013-03-05 11:01:00,
2013-03-05 05:11:00,44.0,34.0,30.24,NNW,342,16.0,19.0,69,0.00,,,0.00,,2013-03-05 11:11:00,
2013-03-05 05:22:00,43.0,34.0,30.25,NNW,330,16.0,16.0,71,0.00,,,0.00,,2013-03-05 11:22:00,
2013-03-05 05:32:00,43.0,34.0,30.26,North,8,13.0,13.0,71,0.00,,,0.00,,2013-03-05 11:32:00,
2013-03-05 05:42:00,43.0,34.0,30.26,North,8,13.0,13.0,71,0.00,,,0.00,,2013-03-05 11:42:00,
2013-03-05 05:52:00,42.0,33.0,30.28,NNW,340,12.0,12.0,71,0.00,,,0.00,,2013-03-05 11:52:00,
2013-03-05 06:02:00,41.0,33.0,30.29,NNE,14,11.0,11.0,72,0.00,,,0.00,,2013-03-05 12:02:00,
2013-03-05 06:11:00,41.0,33.0,30.29,NNE,14,11.0,11.0,72,0.00,,,0.00,,2013-03-05 12:11:00,
2013-03-05 06:22:00,41.0,33.0,30.30,North,8,12.0,12.0,73,0.00,,,0.00,,2013-03-05 12:22:00,
2013-03-05 06:32:00,41.0,33.0,30.31,NNW,338,13.0,13.0,73,0.00,,,0.00,,2013-03-05 12:32:00,
2013-03-05 06:42:00,41.0,33.0,30.31,NNW,338,13.0,13.0,73,0.00,,,0.00,,2013-03-05 12:42:00,
2013-03-05 06:52:00,40.0,32.0,30.32,North,359,11.0,11.0,73,0.00,,,0.00,,2013-03-05 12:52:00,
2013-03-05 07:02:00,40.0,32.0,30.34,North,10,8.0,8.0,73,0.00,,,0.00,,2013-03-05 13:02:00,
2013-03-05 07:11:00,40.0,32.0,30.34,North,10,8.0,8.0,73,0.00,,,0.00,,2013-03-05 13:11:00,
2013-03-05 07:21:00,39.0,32.0,30.35,North,8,7.0,7.0,75,0.00,,,0.00,,2013-03-05 13:21:00,
2013-03-05 07:32:00,40.0,32.0,30.36,North,352,8.0,8.0,74,0.00,,,0.00,,2013-03-05 13:32:00,
2013-03-05 07:42:00,40.0,32.0,30.36,North,352,8.0,8.0,74,0.00,,,0.00,,2013-03-05 13:42:00,
2013-03-05 07:52:00,40.0,32.0,30.37,North,10,7.0,7.0,72,0.00,,,0.00,,2013-03-05 13:52:00,
2013-03-05 08:02:00,42.0,33.0,30.37,NNW,346,8.0,9.0,69,0.00,,,0.00,,2013-03-05 14:02:00,
2013-03-05 08:11:00,42.0,33.0,30.37,NNW,346,8.0,9.0,69,0.00,,,0.00,,2013-03-05 14:11:00,
2013-03-05 08:21:00,43.0,33.0,30.38,NNE,25,10.0,10.0,68,0.00,,,0.00,,2013-03-05 14:21:00,
2013-03-05 08:32:00,44.0,34.0,30.39,NNE,25,9.0,9.0,67,0.00,,,0.00,,2013-03-05 14:32:00,
2013-03-05 08:42:00,44.0,34.0,30.39,NNE,25,9.0,9.0,67,0.00,,,0.00,,2013-03-05 14:42:00,
2013-03-05 08:52:00,44.0,34.0,30.40,North,359,10.0,12.0,67,0.00,,,0.00,,2013-03-05 14:52:00,
2013-03-05 09:01:00,45.0,34.0,30.41,NNW,339,11.0,11.0,64,0.00,,,0.00,,2013-03-05 15:01:00,
2013-03-05 09:11:00,45.0,34.0,30.41,NNW,339,11.0,11.0,64,0.00,,,0.00,,2013-03-05 15:11:00,
2013-03-05 09:21:00,46.0,35.0,30.42,NNW,338,13.0,15.0,64,0.00,,,0.00,,2013-03-05 15:21:00,
2013-03-05 09:32:00,47.0,33.0,30.42,NNW,343,15.0,15.0,57,0.00,,,0.00,,2013-03-05 15:32:00,
2013-03-05 09:42:00,47.0,33.0,30.42,NNW,343,15.0,15.0,57,0.00,,,0.00,,2013-03-05 15:42:00,
2013-03-05 09:52:00,47.0,31.0,30.42,NNW,330,18.0,18.0,53,0.00,,,0.00,,2013-03-05 15:52:00,
2013-03-05 10:01:00,48.0,30.0,30.42,NNW,333,15.0,15.0,50,0.00,,,0.00,,2013-03-05 16:01:00,
2013-03-05 10:11:00,48.0,30.0,30.42,NNW,333,15.0,15.0,50,0.00,,,0.00,,2013-03-05 16:11:00,
2013-03-05 10:21:00,49.0,30.0,30.42,NNE,18,14.0,16.0,47,0.00,,,0.00,,2013-03-05 16:21:00,
2013-03-05 10:32:00,50.0,31.0,30.42,NNW,345,15.0,15.0,48,0.00,,,0.00,,2013-03-05 16:32:00,
2013-03-05 10:42:00,50.0,31.0,30.42,NNW,345,15.0,15.0,48,0.00,,,0.00,,2013-03-05 16:42:00,
2013-03-05 10:52:00,50.0,30.0,30.42,NNE,14,15.0,19.0,46,0.00,,,0.00,,2013-03-05 16:52:00,
2013-03-05 11:01:00,52.0,30.0,30.42,North,4,14.0,16.0,42,0.00,,,0.00,,2013-03-05 17:01:00,
2013-03-05 11:11:00,52.0,30.0,30.42,North,4,14.0,16.0,42,0.00,,,0.00,,2013-03-05 17:11:00,
2013-03-05 11:21:00,52.0,30.0,30.42,NNW,336,15.0,19.0,43,0.00,,,0.00,,2013-03-05 17:21:00,
2013-03-05 11:32:00,53.0,30.0,30.42,NNW,346,15.0,18.0,41,0.00,,,0.00,,2013-03-05 17:32:00,
2013-03-05 11:41:00,53.0,30.0,30.42,NNW,346,15.0,18.0,41,0.00,,,0.00,,2013-03-05 17:41:00,
2013-03-05 11:52:00,53.0,29.0,30.42,NW,323,14.0,19.0,39,0.00,,,0.00,,2013-03-05 17:52:00,
2013-03-05 12:01:00,54.0,29.0,30.42,North,1,17.0,17.0,38,0.00,,,0.00,,2013-03-05 18:01:00,
2013-03-05 12:11:00,54.0,29.0,30.42,North,1,17.0,17.0,38,0.00,,,0.00,,2013-03-05 18:11:00,
2013-03-05 12:21:00,54.0,27.0,30.42,NNW,335,20.0,21.0,35,0.00,,,0.00,,2013-03-05 18:21:00,
2013-03-05 12:32:00,54.0,24.0,30.42,NNW,346,18.0,18.0,31,0.00,,,0.00,,2013-03-05 18:32:00,
2013-03-05 12:42:00,54.0,24.0,30.42,NNW,346,18.0,18.0,31,0.00,,,0.00,,2013-03-05 18:42:00,
2013-03-05 12:53:00,54.0,25.0,30.41,NNE,25,13.0,13.0,32,0.00,,,0.00,,2013-03-05 18:53:00,
2013-03-05 13:01:00,55.0,26.0,30.40,North,4,12.0,13.0,33,0.00,,,0.00,,2013-03-05 19:01:00,
2013-03-05 13:11:00,55.0,26.0,30.40,North,4,12.0,13.0,33,0.00,,,0.00,,2013-03-05 19:11:00,
2013-03-05 13:21:00,56.0,29.0,30.39,NNW,347,14.0,17.0,35,0.00,,,0.00,,2013-03-05 19:21:00,
2013-03-05 13:32:00,56.0,28.0,30.38,NNE,28,14.0,14.0,34,0.00,,,0.00,,2013-03-05 19:32:00,
2013-03-05 13:42:00,56.0,28.0,30.38,NNE,28,14.0,14.0,34,0.00,,,0.00,,2013-03-05 19:42:00,
2013-03-05 13:52:00,57.0,27.0,30.37,North,359,15.0,15.0,32,0.00,,,0.00,,2013-03-05 19:52:00,
2013-03-05 14:01:00,57.0,27.0,30.36,North,4,17.0,17.0,32,0.00,,,0.00,,2013-03-05 20:01:00,
2013-03-05 14:11:00,58.0,28.0,30.35,WNW,301,18.0,20.0,31,0.00,,,0.00,,2013-03-05 20:11:00,
2013-03-05 14:21:00,58.0,28.0,30.35,WNW,301,18.0,20.0,31,0.00,,,0.00,,2013-03-05 20:21:00,
2013-03-05 14:32:00,58.0,26.0,30.34,North,7,13.0,16.0,29,0.00,,,0.00,,2013-03-05 20:32:00,
2013-03-05 14:41:00,58.0,26.0,30.34,North,7,13.0,16.0,29,0.00,,,0.00,,2013-03-05 20:41:00,
2013-03-05 14:52:00,58.0,25.0,30.34,NNW,338,13.0,14.0,28,0.00,,,0.00,,2013-03-05 20:52:00,
2013-03-05 15:01:00,58.0,25.0,30.34,North,359,15.0,15.0,28,0.00,,,0.00,,2013-03-05 21:01:00,
2013-03-05 15:11:00,58.0,25.0,30.34,North,359,15.0,15.0,28,0.00,,,0.00,,2013-03-05 21:11:00,
2013-03-05 15:21:00,58.0,25.0,30.33,NNW,343,16.0,21.0,28,0.00,,,0.00,,2013-03-05 21:21:00,
2013-03-05 15:32:00,59.0,26.0,30.33,NNW,335,13.0,20.0,28,0.00,,,0.00,,2013-03-05 21:32:00,
2013-03-05 15:42:00,59.0,26.0,30.33,NNW,335,13.0,20.0,28,0.00,,,0.00,,2013-03-05 21:42:00,
2013-03-05 15:52:00,59.0,26.0,30.32,North,8,11.0,12.0,28,0.00,,,0.00,,2013-03-05 21:52:00,
2013-03-05 16:01:00,59.0,25.0,30.33,North,359,14.0,14.0,27,0.00,,,0.00,,2013-03-05 22:01:00,
2013-03-05 16:11:00,59.0,25.0,30.33,North,359,14.0,14.0,27,0.00,,,0.00,,2013-03-05 22:11:00,
2013-03-05 16:21:00,58.0,23.0,30.32,North,0,11.0,12.0,26,0.00,,,0.00,,2013-03-05 22:21:00,
2013-03-05 16:32:00,59.0,25.0,30.32,NNE,13,12.0,12.0,27,0.00,,,0.00,,2013-03-05 22:32:00,
2013-03-05 16:41:00,59.0,25.0,30.32,NNE,13,12.0,12.0,27,0.00,,,0.00,,2013-03-05 22:41:00,
2013-03-05 16:52:00,58.0,24.0,30.32,North,4,13.0,13.0,27,0.00,,,0.00,,2013-03-05 22:52:00,
2013-03-05 17:01:00,58.0,23.0,30.32,NNE,17,13.0,17.0,26,0.00,,,0.00,,2013-03-05 23:01:00,
2013-03-05 17:11:00,58.0,23.0,30.32,NNE,17,13.0,17.0,26,0.00,,,0.00,,2013-03-05 23:11:00,
2013-03-05 17:21:00,58.0,23.0,30.32,North,11,7.0,14.0,26,0.00,,,0.00,,2013-03-05 23:21:00,
2013-03-05 17:32:00,57.0,22.0,30.32,North,6,9.0,16.0,26,0.00,,,0.00,,2013-03-05 23:32:00,
2013-03-05 17:42:00,57.0,22.0,30.32,North,6,9.0,16.0,26,0.00,,,0.00,,2013-03-05 23:42:00,
2013-03-05 17:52:00,57.0,23.0,30.32,North,1,11.0,11.0,27,0.00,,,0.00,,2013-03-05 23:52:00,
2013-03-05 18:01:00,56.0,23.0,30.33,ENE,62,8.0,8.0,27,0.00,,,0.00,,2013-03-06 00:01:00,
2013-03-05 18:11:00,56.0,23.0,30.33,ENE,62,8.0,8.0,27,0.00,,,0.00,,2013-03-06 00:11:00,
2013-03-05 18:21:00,55.0,23.0,30.33,NNE,17,7.0,7.0,28,0.00,,,0.00,,2013-03-06 00:21:00,
2013-03-05 18:32:00,55.0,23.0,30.33,NNE,30,6.0,6.0,28,0.00,,,0.00,,2013-03-06 00:32:00,
2013-03-05 18:41:00,55.0,23.0,30.33,NNE,30,6.0,6.0,28,0.00,,,0.00,,2013-03-06 00:41:00,
2013-03-05 18:51:00,54.0,22.0,30.34,NNE,32,7.0,8.0,29,0.00,,,0.00,,2013-03-06 00:51:00,
2013-03-05 19:01:00,52.0,22.0,30.34,NE,42,4.0,4.0,31,0.00,,,0.00,,2013-03-06 01:01:00,
2013-03-05 19:11:00,52.0,22.0,30.34,NE,42,4.0,4.0,31,0.00,,,0.00,,2013-03-06 01:11:00,
2013-03-05 19:21:00,50.0,21.0,30.34,NE,48,4.0,4.0,32,0.00,,,0.00,,2013-03-06 01:21:00,
2013-03-05 19:32:00,49.0,22.0,30.34,NE,45,5.0,5.0,34,0.00,,,0.00,,2013-03-06 01:32:00,
2013-03-05 19:41:00,49.0,22.0,30.34,NE,45,5.0,5.0,34,0.00,,,0.00,,2013-03-06 01:41:00,
2013-03-05 19:52:00,48.0,22.0,30.35,NE,45,4.0,4.0,35,0.00,,,0.00,,2013-03-06 01:52:00,
2013-03-05 20:01:00,47.0,21.0,30.35,NE,41,4.0,4.0,36,0.00,,,0.00,,2013-03-06 02:01:00,
2013-03-05 20:11:00,47.0,21.0,30.35,NE,41,4.0,4.0,36,0.00,,,0.00,,2013-03-06 02:11:00,
2013-03-05 20:22:00,46.0,21.0,30.36,NE,42,3.0,3.0,37,0.00,,,0.00,,2013-03-06 02:22:00,
2013-03-05 20:31:00,45.0,21.0,30.37,NNE,32,4.0,4.0,38,0.00,,,0.00,,2013-03-06 02:31:00,
2013-03-05 20:41:00,45.0,21.0,30.37,NNE,32,4.0,4.0,38,0.00,,,0.00,,2013-03-06 02:41:00,
2013-03-05 20:52:00,45.0,21.0,30.37,NNE,31,5.0,5.0,38,0.00,,,0.00,,2013-03-06 02:52:00,
2013-03-05 21:01:00,45.0,21.0,30.37,NNE,13,5.0,5.0,38,0.00,,,0.00,,2013-03-06 03:01:00,
2013-03-05 21:11:00,45.0,21.0,30.37,NNE,13,5.0,5.0,38,0.00,,,0.00,,2013-03-06 03:11:00,
2013-03-05 21:22:00,43.0,21.0,30.38,NNE,17,4.0,4.0,41,0.00,,,0.00,,2013-03-06 03:22:00,
2013-03-05 21:31:00,43.0,21.0,30.38,NE,35,0.0,0.0,41,0.00,,,0.00,,2013-03-06 03:31:00,
2013-03-05 21:42:00,43.0,21.0,30.38,NE,35,0.0,0.0,41,0.00,,,0.00,,2013-03-06 03:42:00,
2013-03-05 21:52:00,41.0,20.0,30.39,NE,38,2.0,2.0,43,0.00,,,0.00,,2013-03-06 03:52:00,
2013-03-05 22:02:00,41.0,20.0,30.39,NE,39,2.0,3.0,42,0.00,,,0.00,,2013-03-06 04:02:00,
2013-03-05 22:11:00,41.0,20.0,30.39,NE,39,2.0,3.0,42,0.00,,,0.00,,2013-03-06 04:11:00,
2013-03-05 22:21:00,40.0,19.0,30.40,ENE,66,0.0,4.0,43,0.00,,,0.00,,2013-03-06 04:21:00,
2013-03-05 22:32:00,39.0,20.0,30.40,East,89,3.0,3.0,46,0.00,,,0.00,,2013-03-06 04:32:00,
2013-03-05 22:41:00,39.0,20.0,30.40,East,89,3.0,3.0,46,0.00,,,0.00,,2013-03-06 04:41:00,
2013-03-05 22:52:00,37.0,20.0,30.40,East,84,0.0,0.0,49,0.00,,,0.00,,2013-03-06 04:52:00,
2013-03-05 23:01:00,37.0,19.0,30.40,East,97,3.0,3.0,48,0.00,,,0.00,,2013-03-06 05:01:00,
2013-03-05 23:11:00,36.0,19.0,30.41,East,96,0.0,0.0,49,0.00,,,0.00,,2013-03-06 05:11:00,
2013-03-05 23:22:00,36.0,19.0,30.41,East,96,0.0,0.0,49,0.00,,,0.00,,2013-03-06 05:22:00,
2013-03-05 23:32:00,35.0,19.0,30.41,East,96,0.0,0.0,51,0.00,,,0.00,,2013-03-06 05:32:00,
2013-03-05 23:42:00,35.0,19.0,30.41,East,96,0.0,0.0,51,0.00,,,0.00,,2013-03-06 05:42:00,
2013-03-05 23:52:00,32.0,16.0,30.41,East,96,0.0,0.0,52,0.00,,,0.00,,2013-03-06 05:52:00,